Time;durP1;ratioP1;P1;durP2;ratioP2;P2;SDS_P1;SDS_P2;PMS_P1;PMS_P2;Temp;Humidity;BMP_temperature;BMP_pressure;BME280_temperature;BME280_humidity;BME280_pressure;Samples;Min_cycle;Max_cycle;Signal;HPM_P1;HPM_P2
2023/04/08 00:00:07;;;;;;;37.00;17.80;;;;;;;19.07;46.38;102361.03;5089768;28;20489;-68
2023/04/08 00:02:33;;;;;;;33.30;17.40;;;;;;;18.93;45.69;102358.69;5071813;28;20023;-69
2023/04/08 00:04:58;;;;;;;37.23;17.37;;;;;;;18.25;47.81;102356.44;5071232;28;20028;-69
2023/04/08 00:07:24;;;;;;;38.83;19.17;;;;;;;18.80;46.97;102362.44;5071363;28;20028;-69
2023/04/08 00:09:49;;;;;;;39.80;20.13;;;;;;;18.78;46.70;102365.13;5071902;28;20476;-69
2023/04/08 00:12:15;;;;;;;41.10;19.30;;;;;;;18.04;48.23;102355.91;5070663;28;20031;-68
2023/04/08 00:14:40;;;;;;;41.53;20.00;;;;;;;18.14;48.49;102360.13;5072020;28;20399;-68
2023/04/08 00:17:06;;;;;;;45.33;21.87;;;;;;;17.92;49.45;102366.69;5088528;28;20106;-68
2023/04/08 00:19:32;;;;;;;48.57;22.40;;;;;;;18.36;48.51;102351.81;5090015;28;20024;-69
2023/04/08 00:21:58;;;;;;;45.03;21.03;;;;;;;17.31;49.93;102369.34;5071739;28;20471;-68
2023/04/08 00:24:23;;;;;;;48.73;21.93;;;;;;;17.44;50.46;102370.91;5070635;28;20222;-69
2023/04/08 00:26:49;;;;;;;45.70;22.27;;;;;;;17.99;49.69;102368.34;5090088;28;20069;-69
2023/04/08 00:29:14;;;;;;;46.87;22.27;;;;;;;17.16;51.61;102369.53;5089269;28;20268;-68
2023/04/08 00:31:40;;;;;;;51.87;22.83;;;;;;;17.46;51.18;102373.53;5071183;28;20028;-68
2023/04/08 00:34:05;;;;;;;45.77;21.33;;;;;;;17.23;52.15;102363.31;5089197;28;20438;-68
2023/04/08 00:36:31;;;;;;;47.57;21.20;;;;;;;17.93;50.15;102368.47;5089880;28;20039;-69
2023/04/08 00:38:56;;;;;;;47.97;22.77;;;;;;;16.98;51.89;102374.19;5070832;28;20051;-68
2023/04/08 00:41:22;;;;;;;48.93;21.33;;;;;;;16.31;53.94;102368.72;5071579;28;20040;-69
2023/04/08 00:43:47;;;;;;;54.03;24.43;;;;;;;17.32;52.60;102372.84;5071290;28;20103;-68
2023/04/08 00:46:12;;;;;;;44.23;21.40;;;;;;;17.29;52.90;102376.41;5070373;28;20087;-68
2023/04/08 00:48:38;;;;;;;50.73;23.10;;;;;;;17.98;50.13;102371.88;5071397;28;20020;-68
2023/04/08 00:51:07;;;;;;;49.07;23.47;;;;;;;17.45;51.47;102372.66;5071378;28;20058;-68
2023/04/08 00:53:32;;;;;;;52.47;24.17;;;;;;;18.13;50.36;102370.75;5088978;28;20102;-68
2023/04/08 00:56:00;;;;;;;50.73;24.00;;;;;;;18.27;49.88;102367.84;5089753;28;20110;-68
2023/04/08 00:58:26;;;;;;;47.57;23.27;;;;;;;17.59;51.02;102374.25;5089018;28;20028;-68
2023/04/08 01:01:04;;;;;;;52.73;23.13;;;;;;;18.01;49.83;102374.50;5074245;28;20487;-69
2023/04/08 01:04:04;;;;;;;50.77;22.17;;;;;;;17.78;51.10;102383.63;5075323;28;20024;-69
2023/04/08 01:06:34;;;;;;;52.17;22.37;;;;;;;17.68;51.46;102384.69;5093032;28;20570;-69
2023/04/08 01:09:03;;;;;;;47.47;21.70;;;;;;;17.81;50.67;102372.13;5075345;28;20108;-68
2023/04/08 01:11:33;;;;;;;44.63;22.10;;;;;;;17.10;52.40;102375.78;5075252;28;20028;-68
2023/04/08 01:14:05;;;;;;;49.80;22.17;;;;;;;17.97;50.49;102381.59;5074274;28;20106;-68
2023/04/08 01:16:30;;;;;;;47.37;22.00;;;;;;;17.49;51.19;102377.91;5093533;28;20024;-68
2023/04/08 01:18:56;;;;;;;47.47;22.17;;;;;;;17.47;52.63;102385.84;5093167;28;20028;-69
2023/04/08 01:21:23;;;;;;;43.00;20.63;;;;;;;18.26;50.26;102379.38;5092264;28;20048;-69
2023/04/08 01:24:05;;;;;;;41.67;20.23;;;;;;;17.88;50.92;102386.13;5074823;28;20504;-68
2023/04/08 01:26:31;;;;;;;43.93;21.53;;;;;;;18.08;50.53;102384.06;5074902;28;20115;-68
2023/04/08 01:29:00;;;;;;;46.57;20.93;;;;;;;17.80;51.30;102384.50;5092343;28;20420;-68
2023/04/08 01:31:27;;;;;;;44.30;20.00;;;;;;;17.02;53.25;102390.84;5074367;28;20491;-68
2023/04/08 01:33:54;;;;;;;44.13;21.90;;;;;;;17.93;51.04;102389.63;5074691;28;20395;-69
2023/04/08 01:36:21;;;;;;;46.27;21.50;;;;;;;18.03;50.64;102385.03;5073409;28;20120;-68
2023/04/08 01:38:48;;;;;;;46.53;21.43;;;;;;;18.18;50.43;102373.34;5092691;28;20393;-69
2023/04/08 01:41:16;;;;;;;46.53;21.77;;;;;;;18.28;49.76;102380.19;5092486;28;20108;-69
2023/04/08 01:43:42;;;;;;;50.17;21.33;;;;;;;16.99;52.79;102382.97;5092069;28;20074;-68
2023/04/08 01:46:10;;;;;;;50.93;22.80;;;;;;;17.41;52.20;102381.53;5092229;28;20024;-69
2023/04/08 01:48:37;;;;;;;48.10;21.47;;;;;;;16.99;53.77;102383.84;5073748;28;20028;-68
2023/04/08 01:51:06;;;;;;;48.60;22.53;;;;;;;17.96;51.43;102389.56;5074526;28;20020;-69
2023/04/08 01:53:32;;;;;;;46.33;22.20;;;;;;;18.48;48.98;102380.69;5092489;28;20027;-68
2023/04/08 01:56:04;;;;;;;48.90;22.83;;;;;;;17.86;50.25;102387.91;5091942;28;20081;-68
2023/04/08 01:58:36;;;;;;;47.35;21.23;;;;;;;17.79;50.76;102393.31;5074162;28;20138;-69
2023/04/08 02:01:04;;;;;;;47.90;23.23;;;;;;;17.99;50.85;102394.78;5074274;28;20058;-68
2023/04/08 02:03:30;;;;;;;46.20;22.20;;;;;;;17.34;51.74;102392.19;5091701;28;20027;-69
2023/04/08 02:05:56;;;;;;;40.43;20.10;;;;;;;18.44;49.60;102386.94;5074113;28;20032;-69
2023/04/08 02:08:21;;;;;;;48.13;22.07;;;;;;;18.29;49.70;102381.94;5073930;28;20031;-69
2023/04/08 02:10:46;;;;;;;47.17;23.10;;;;;;;18.22;48.92;102397.06;5091237;28;20020;-68
2023/04/08 02:13:12;;;;;;;49.83;22.63;;;;;;;17.51;51.03;102390.19;5073562;28;20437;-69
2023/04/08 02:15:42;;;;;;;47.47;21.77;;;;;;;17.72;50.83;102396.97;5074019;28;20134;-69
2023/04/08 02:18:24;;;;;;;46.43;22.30;;;;;;;17.50;51.23;102396.38;5072614;28;20028;-68
2023/04/08 02:20:57;;;;;;;51.80;23.47;;;;;;;18.28;49.37;102390.78;5092147;28;20032;-68
2023/04/08 02:23:28;;;;;;;47.57;22.23;;;;;;;18.31;49.63;102390.72;5091724;28;20024;-69
2023/04/08 02:25:55;;;;;;;48.90;22.70;;;;;;;18.13;49.17;102392.81;5073250;28;20119;-69
2023/04/08 02:28:22;;;;;;;46.50;22.23;;;;;;;18.41;48.74;102392.31;5073501;28;20479;-69
2023/04/08 02:30:49;;;;;;;49.63;22.47;;;;;;;17.97;49.50;102392.19;5091338;28;20028;-69
2023/04/08 02:33:18;;;;;;;48.80;23.63;;;;;;;18.22;49.66;102390.91;5073264;28;20102;-69
2023/04/08 02:35:44;;;;;;;45.67;22.43;;;;;;;18.00;50.21;102388.63;5073625;28;20106;-69
2023/04/08 02:38:10;;;;;;;46.47;22.33;;;;;;;18.21;49.48;102386.50;5090598;28;20035;-69
2023/04/08 02:40:36;;;;;;;51.13;23.83;;;;;;;18.96;47.55;102385.09;5073476;28;20035;-68
2023/04/08 02:43:02;;;;;;;50.93;23.33;;;;;;;18.15;48.92;102400.72;5073456;28;20024;-68
2023/04/08 02:45:37;;;;;;;45.60;22.40;;;;;;;18.46;48.12;102393.09;5072207;28;20062;-69
2023/04/08 02:48:05;;;;;;;54.47;22.90;;;;;;;18.40;47.95;102395.84;5073599;28;20027;-69
2023/04/08 02:50:30;;;;;;;46.73;21.47;;;;;;;18.63;47.49;102389.28;5086897;28;20052;-69
2023/04/08 02:52:55;;;;;;;44.83;22.50;;;;;;;18.25;48.18;102396.13;5089444;28;20510;-68
2023/04/08 02:55:21;;;;;;;49.60;23.03;;;;;;;18.08;48.72;102401.69;5089595;28;20031;-69
2023/04/08 02:57:47;;;;;;;45.27;21.73;;;;;;;18.18;48.99;102405.09;5090088;28;20150;-69
2023/04/08 03:00:13;;;;;;;44.77;22.20;;;;;;;18.44;48.03;102401.97;5088916;28;20023;-68
2023/04/08 03:02:38;;;;;;;45.80;22.33;;;;;;;18.57;47.27;102397.31;5091438;28;20036;-69
2023/04/08 03:05:08;;;;;;;47.13;21.63;;;;;;;18.09;48.08;102409.63;5089551;28;20067;-69
2023/04/08 03:07:34;;;;;;;46.63;22.83;;;;;;;18.10;48.17;102408.72;5090729;28;20051;-69
2023/04/08 03:09:59;;;;;;;48.10;21.67;;;;;;;18.49;47.70;102410.69;5089708;28;20024;-69
2023/04/08 03:12:28;;;;;;;46.50;21.43;;;;;;;18.24;48.06;102415.56;5089398;28;20024;-68
2023/04/08 03:14:53;;;;;;;48.43;22.43;;;;;;;18.27;48.18;102410.19;5089149;28;20051;-68
2023/04/08 03:17:20;;;;;;;45.33;21.77;;;;;;;17.12;50.45;102414.50;5090377;28;20032;-68
2023/04/08 03:19:45;;;;;;;48.90;22.77;;;;;;;17.99;49.31;102415.97;5089917;28;20498;-69
2023/04/08 03:22:12;;;;;;;46.77;21.30;;;;;;;17.66;49.30;102412.91;5087799;28;20024;-68
2023/04/08 03:24:37;;;;;;;43.03;21.13;;;;;;;18.01;49.10;102416.81;5089542;28;20042;-69
2023/04/08 03:27:07;;;;;;;37.97;18.83;;;;;;;17.86;49.44;102417.00;5088877;28;20874;-69
2023/04/08 03:29:32;;;;;;;36.53;17.37;;;;;;;18.40;48.19;102409.09;5089485;28;20115;-68
2023/04/08 03:31:58;;;;;;;40.40;17.40;;;;;;;18.17;48.23;102408.63;5089539;28;20111;-69
2023/04/08 03:34:23;;;;;;;38.47;18.60;;;;;;;18.19;48.35;102412.09;5089396;28;20322;-69
2023/04/08 03:36:49;;;;;;;40.53;18.47;;;;;;;18.54;47.69;102410.63;5090820;28;20064;-69
2023/04/08 03:39:14;;;;;;;50.33;18.80;;;;;;;18.76;46.85;102414.59;5089881;28;20024;-69
2023/04/08 03:41:40;;;;;;;86.47;21.77;;;;;;;18.17;48.55;102424.50;5088585;28;20050;-69
2023/04/08 03:44:05;;;;;;;75.97;21.33;;;;;;;17.71;49.83;102424.28;5088544;28;20373;-68
2023/04/08 03:46:30;;;;;;;189.27;24.43;;;;;;;18.47;47.53;102423.09;5089368;28;20024;-69
2023/04/08 03:48:56;;;;;;;112.13;23.07;;;;;;;17.40;50.38;102431.78;5088291;28;20368;-68
2023/04/08 03:51:21;;;;;;;86.27;19.30;;;;;;;17.95;48.17;102435.41;5090205;28;20024;-69
2023/04/08 03:53:48;;;;;;;110.20;19.63;;;;;;;17.97;48.15;102433.66;5090319;28;20024;-69
2023/04/08 03:56:13;;;;;;;133.87;19.03;;;;;;;18.09;48.28;102443.13;5087790;28;20019;-69
2023/04/08 03:58:39;;;;;;;333.97;23.50;;;;;;;17.26;50.99;102439.88;5088902;28;20430;-69
2023/04/08 04:01:04;;;;;;;90.73;21.47;;;;;;;17.45;49.58;102444.03;5088457;28;20452;-68
2023/04/08 04:03:30;;;;;;;212.67;21.33;;;;;;;17.38;50.50;102445.00;5088376;28;20047;-68
2023/04/08 04:05:56;;;;;;;145.77;16.27;;;;;;;17.68;49.90;102442.84;5090239;28;20070;-69
2023/04/08 04:08:21;;;;;;;175.13;19.23;;;;;;;18.28;48.11;102449.00;5088424;28;20116;-69
2023/04/08 04:10:46;;;;;;;227.90;18.97;;;;;;;16.74;51.01;102457.16;5088163;28;20033;-68
2023/04/08 04:13:12;;;;;;;143.47;21.30;;;;;;;17.15;50.60;102457.66;5088199;28;20028;-68
2023/04/08 04:15:39;;;;;;;227.93;19.37;;;;;;;16.70;51.67;102445.75;5088663;28;20028;-69
2023/04/08 04:18:05;;;;;;;187.93;18.50;;;;;;;16.26;53.91;102460.22;5087373;28;20505;-68
2023/04/08 04:20:30;;;;;;;211.53;21.23;;;;;;;16.60;52.22;102459.94;5088815;28;20071;-68
2023/04/08 04:22:56;;;;;;;324.90;23.67;;;;;;;17.33;51.00;102457.41;5089920;28;20494;-68
2023/04/08 04:25:21;;;;;;;268.20;21.27;;;;;;;16.67;51.36;102469.53;5089006;28;20069;-69
2023/04/08 04:27:47;;;;;;;98.57;16.83;;;;;;;16.53;52.52;102471.44;5088544;28;20028;-68
2023/04/08 04:30:14;;;;;;;106.17;16.17;;;;;;;16.31;52.31;102468.97;5087672;28;20118;-70
2023/04/08 04:32:41;;;;;;;113.57;16.57;;;;;;;17.07;50.54;102471.78;5089781;28;20054;-69
2023/04/08 04:35:08;;;;;;;144.43;18.37;;;;;;;16.78;51.17;102459.75;5087029;28;20115;-68
2023/04/08 04:37:33;;;;;;;175.93;20.17;;;;;;;16.87;50.70;102468.47;5087679;28;20035;-68
2023/04/08 04:39:59;;;;;;;95.20;17.17;;;;;;;17.29;49.83;102467.13;5089809;28;20028;-68
2023/04/08 04:42:24;;;;;;;138.97;17.83;;;;;;;16.17;51.94;102470.84;5088000;28;20035;-68
2023/04/08 04:44:50;;;;;;;96.03;18.27;;;;;;;16.37;52.52;102473.34;5087834;28;20032;-71
2023/04/08 04:47:15;;;;;;;109.50;16.37;;;;;;;16.49;51.88;102473.22;5089199;28;20460;-67
2023/04/08 04:49:41;;;;;;;131.87;16.23;;;;;;;16.00;52.80;102490.28;5087998;28;20048;-68
2023/04/08 04:52:06;;;;;;;139.50;16.53;;;;;;;16.48;51.91;102481.16;5088259;28;20041;-67
2023/04/08 04:54:32;;;;;;;78.90;15.77;;;;;;;16.49;51.87;102488.19;5089568;28;20134;-68
2023/04/08 04:56:57;;;;;;;83.57;16.90;;;;;;;16.50;52.12;102487.28;5088068;28;20479;-68
2023/04/08 04:59:22;;;;;;;121.67;17.80;;;;;;;15.95;52.87;102489.47;5088511;28;20366;-68
2023/04/08 05:01:48;;;;;;;86.07;16.00;;;;;;;16.44;51.81;102497.03;5088198;28;20039;-68
2023/04/08 05:04:13;;;;;;;122.53;19.27;;;;;;;16.51;51.82;102492.56;5089196;28;20032;-68
2023/04/08 05:06:38;;;;;;;97.63;18.30;;;;;;;16.80;50.56;102507.25;5088699;28;20031;-69
2023/04/08 05:09:04;;;;;;;66.77;17.97;;;;;;;17.11;50.31;102493.78;5087899;28;20494;-69
2023/04/08 05:11:29;;;;;;;96.87;18.13;;;;;;;16.69;50.40;102496.81;5089557;28;20020;-69
2023/04/08 05:13:55;;;;;;;173.17;20.23;;;;;;;15.62;53.64;102504.56;5087282;28;20028;-68
2023/04/08 05:16:20;;;;;;;153.43;17.43;;;;;;;15.73;53.37;102501.84;5089142;28;20081;-67
2023/04/08 05:18:45;;;;;;;81.33;16.93;;;;;;;16.65;51.40;102500.38;5087916;28;20035;-68
2023/04/08 05:21:11;;;;;;;127.60;18.07;;;;;;;16.24;51.96;102504.22;5086688;28;20030;-68
2023/04/08 05:23:36;;;;;;;99.37;17.30;;;;;;;15.75;53.85;102503.59;5089410;28;20451;-69
2023/04/08 05:26:02;;;;;;;165.30;20.20;;;;;;;15.41;54.92;102506.41;5089261;28;20498;-68
2023/04/08 05:28:27;;;;;;;97.27;17.57;;;;;;;15.78;53.39;102511.50;5088419;28;20028;-68
2023/04/08 05:30:53;;;;;;;133.77;18.10;;;;;;;16.30;52.08;102504.16;5087996;28;20059;-68
2023/04/08 05:33:19;;;;;;;179.53;20.10;;;;;;;16.44;51.78;102510.22;5087485;28;20035;-68
2023/04/08 05:35:45;;;;;;;90.27;17.53;;;;;;;16.64;51.02;102509.19;5087127;28;20052;-69
2023/04/08 05:38:10;;;;;;;215.97;20.37;;;;;;;15.67;53.84;102510.66;5087297;28;20024;-69
2023/04/08 05:40:36;;;;;;;155.07;19.80;;;;;;;15.69;53.39;102524.72;5088476;28;20030;-68
2023/04/08 05:43:02;;;;;;;95.37;18.53;;;;;;;15.38;56.32;102522.19;5089350;28;20038;-70
2023/04/08 05:45:27;;;;;;;113.53;19.70;;;;;;;15.94;53.60;102527.25;5088657;28;20060;-69
2023/04/08 05:47:53;;;;;;;177.67;22.03;;;;;;;15.85;53.72;102527.31;5090999;28;20039;-68
2023/04/08 05:50:18;;;;;;;124.80;20.97;;;;;;;16.35;52.82;102523.47;5090737;28;20059;-68
2023/04/08 05:52:44;;;;;;;132.47;21.13;;;;;;;17.00;49.87;102532.66;5091590;28;20031;-69
2023/04/08 05:55:10;;;;;;;125.63;21.27;;;;;;;16.00;52.28;102537.75;5090132;28;20445;-69
2023/04/08 05:57:36;;;;;;;160.27;22.17;;;;;;;15.94;53.43;102537.81;5091176;28;20438;-69
2023/04/08 06:00:02;;;;;;;96.10;20.37;;;;;;;15.93;54.27;102536.91;5091291;28;20031;-68
2023/04/08 06:02:27;;;;;;;97.37;22.33;;;;;;;14.93;57.11;102551.28;5090121;28;20028;-68
2023/04/08 06:04:53;;;;;;;115.83;23.03;;;;;;;15.71;55.14;102545.78;5091005;28;20035;-68
2023/04/08 06:07:18;;;;;;;88.00;22.23;;;;;;;14.98;55.80;102559.16;5090816;28;20031;-67
2023/04/08 06:09:44;;;;;;;96.53;20.07;;;;;;;14.30;59.36;102556.47;5091533;28;20099;-68
2023/04/08 06:12:09;;;;;;;106.80;20.47;;;;;;;15.54;56.64;102545.88;5092074;28;20437;-69
2023/04/08 06:14:35;;;;;;;107.10;21.20;;;;;;;15.26;56.82;102551.19;5091201;28;20584;-69
2023/04/08 06:17:00;;;;;;;75.77;23.53;;;;;;;15.88;55.40;102553.66;5091504;28;20381;-69
2023/04/08 06:19:25;;;;;;;64.20;23.03;;;;;;;15.94;54.30;102553.63;5091676;28;20477;-68
2023/04/08 06:21:51;;;;;;;102.40;22.20;;;;;;;15.38;56.61;102563.47;5090884;28;20023;-68
2023/04/08 06:24:16;;;;;;;82.87;21.63;;;;;;;16.21;54.82;102556.97;5090940;28;20027;-68
2023/04/08 06:26:42;;;;;;;92.00;21.37;;;;;;;16.47;53.72;102558.59;5090572;28;20023;-68
2023/04/08 06:29:07;;;;;;;66.13;20.23;;;;;;;15.48;55.28;102564.31;5091577;28;20020;-68
2023/04/08 06:31:33;;;;;;;64.90;19.50;;;;;;;14.98;60.02;102580.22;5091190;28;20059;-68
2023/04/08 06:33:58;;;;;;;46.20;20.50;;;;;;;15.57;56.96;102574.84;5092002;28;20036;-68
2023/04/08 06:36:23;;;;;;;63.77;20.03;;;;;;;15.39;57.91;102576.66;5089939;28;20032;-68
2023/04/08 06:38:49;;;;;;;82.57;21.13;;;;;;;14.94;58.35;102591.63;5089642;28;20032;-69
2023/04/08 06:41:14;;;;;;;104.33;20.73;;;;;;;15.36;56.85;102587.19;5091643;28;20115;-69
2023/04/08 06:43:40;;;;;;;83.07;21.40;;;;;;;16.31;54.43;102584.19;5091710;28;20060;-69
2023/04/08 06:46:05;;;;;;;81.23;22.73;;;;;;;15.33;58.54;102597.75;5090457;28;20031;-69
2023/04/08 06:48:31;;;;;;;123.27;23.07;;;;;;;15.57;56.93;102593.28;5091388;28;20027;-68
2023/04/08 06:50:57;;;;;;;78.90;23.70;;;;;;;15.86;55.86;102597.63;5072762;28;20031;-69
2023/04/08 06:53:23;;;;;;;78.20;23.23;;;;;;;16.62;53.49;102587.50;5091173;28;20387;-69
2023/04/08 06:55:49;;;;;;;87.77;24.27;;;;;;;16.95;52.67;102590.78;5073670;28;20031;-68
2023/04/08 06:58:14;;;;;;;81.60;23.53;;;;;;;17.04;51.86;102593.34;5089039;28;20028;-69
2023/04/08 07:00:41;;;;;;;103.33;24.57;;;;;;;16.29;52.99;102597.38;5073374;28;20535;-69
2023/04/08 07:03:06;;;;;;;103.83;24.77;;;;;;;16.56;53.58;102600.75;5072782;28;20032;-69
2023/04/08 07:05:34;;;;;;;103.47;25.47;;;;;;;17.21;52.12;102606.38;5090415;28;20032;-69
2023/04/08 07:07:59;;;;;;;92.77;25.13;;;;;;;16.54;53.84;102613.06;5073080;28;20028;-69
2023/04/08 07:10:25;;;;;;;77.13;25.57;;;;;;;15.97;55.72;102609.00;5072333;28;20028;-69
2023/04/08 07:12:51;;;;;;;68.83;24.23;;;;;;;16.30;56.09;102609.72;5072295;28;20031;-70
2023/04/08 07:15:16;;;;;;;47.60;24.50;;;;;;;17.32;52.48;102608.94;5072347;28;20024;-69
2023/04/08 07:17:42;;;;;;;48.33;23.73;;;;;;;17.77;51.49;102611.94;5072630;28;20020;-70
2023/04/08 07:20:07;;;;;;;56.53;26.07;;;;;;;17.83;51.20;102616.28;5089886;28;20073;-70
2023/04/08 07:22:33;;;;;;;50.50;24.57;;;;;;;18.18;50.24;102606.22;5072755;28;20043;-70
2023/04/08 07:24:58;;;;;;;53.03;25.23;;;;;;;18.47;48.92;102617.22;5072835;28;20502;-69
2023/04/08 07:27:24;;;;;;;58.63;24.77;;;;;;;17.28;51.98;102623.06;5071333;28;20063;-70
2023/04/08 07:29:53;;;;;;;52.53;25.10;;;;;;;17.63;51.85;102613.91;5072660;28;20384;-70
2023/04/08 07:32:19;;;;;;;48.80;24.30;;;;;;;17.24;53.19;102627.53;5071915;28;20020;-69
2023/04/08 07:34:45;;;;;;;58.10;24.60;;;;;;;17.87;50.52;102633.00;5090146;28;20024;-69
2023/04/08 07:37:10;;;;;;;47.60;24.53;;;;;;;18.14;50.14;102624.75;5071867;28;20528;-70
2023/04/08 07:39:35;;;;;;;44.07;23.87;;;;;;;16.30;55.10;102625.53;5072523;28;20053;-69
2023/04/08 07:42:01;;;;;;;40.67;22.83;;;;;;;16.51;54.89;102631.56;5089855;28;20039;-69
2023/04/08 07:44:26;;;;;;;48.60;23.40;;;;;;;17.40;52.60;102628.22;5089925;28;20043;-69
2023/04/08 07:46:52;;;;;;;49.70;24.27;;;;;;;16.71;53.04;102639.38;5072083;28;20472;-69
2023/04/08 07:49:17;;;;;;;58.57;24.40;;;;;;;16.71;53.19;102632.31;5088857;28;20044;-70
2023/04/08 07:51:42;;;;;;;47.80;21.97;;;;;;;16.60;54.73;102636.81;5090322;28;20035;-69
2023/04/08 07:54:10;;;;;;;43.90;24.60;;;;;;;16.51;55.89;102642.13;5071449;28;20062;-70
2023/04/08 07:56:39;;;;;;;51.07;23.37;;;;;;;16.86;54.11;102643.66;5090089;28;20471;-69
2023/04/08 07:59:05;;;;;;;38.53;22.57;;;;;;;17.21;52.96;102647.81;5071584;28;20027;-69
2023/04/08 08:01:33;;;;;;;38.70;22.30;;;;;;;17.68;52.79;102643.81;5089474;28;20071;-69
2023/04/08 08:03:59;;;;;;;40.70;23.17;;;;;;;17.66;51.14;102648.22;5072443;28;20032;-69
2023/04/08 08:06:26;;;;;;;41.67;23.10;;;;;;;18.31;49.49;102639.53;5071584;28;20030;-69
2023/04/08 08:08:51;;;;;;;38.73;20.83;;;;;;;17.25;52.01;102658.31;5070827;28;20024;-70
2023/04/08 08:11:17;;;;;;;37.20;22.07;;;;;;;17.83;50.68;102652.47;5071138;28;20081;-69
2023/04/08 08:13:42;;;;;;;32.50;19.23;;;;;;;18.23;49.68;102657.28;5071880;28;20020;-70
2023/04/08 08:16:10;;;;;;;35.23;21.03;;;;;;;17.48;51.03;102667.81;5070428;28;20031;-70
2023/04/08 08:18:36;;;;;;;37.23;22.33;;;;;;;16.66;52.06;102664.91;5071534;28;20031;-69
2023/04/08 08:21:02;;;;;;;40.57;22.13;;;;;;;17.13;49.84;102667.25;5090006;28;20419;-70
2023/04/08 08:23:27;;;;;;;36.77;21.00;;;;;;;18.21;49.69;102664.38;5070412;28;20024;-69
2023/04/08 08:26:10;;;;;;;36.87;20.73;;;;;;;18.59;47.33;102668.28;5071720;28;20512;-69
2023/04/08 08:28:37;;;;;;;37.53;22.50;;;;;;;18.45;48.29;102658.75;5071339;28;20027;-69
2023/04/08 08:31:04;;;;;;;35.80;20.53;;;;;;;18.76;48.82;102662.72;5070446;28;20391;-69
2023/04/08 08:33:30;;;;;;;32.83;19.87;;;;;;;18.09;49.51;102666.28;5071479;28;20031;-69
2023/04/08 08:35:56;;;;;;;33.30;19.47;;;;;;;18.19;48.52;102663.50;5089881;28;20380;-68
2023/04/08 08:38:22;;;;;;;35.37;20.80;;;;;;;17.64;50.03;102673.84;5070256;28;20035;-69
2023/04/08 08:40:53;;;;;;;31.17;19.73;;;;;;;17.24;50.03;102674.19;5071833;28;20028;-69
2023/04/08 08:43:19;;;;;;;32.37;19.57;;;;;;;16.81;50.37;102679.78;5089250;28;20560;-68
2023/04/08 08:45:44;;;;;;;32.47;18.70;;;;;;;14.97;55.44;102694.31;5070784;28;20107;-68
2023/04/08 08:48:10;;;;;;;34.27;19.87;;;;;;;15.89;52.33;102681.97;5089417;28;20031;-69
2023/04/08 08:50:35;;;;;;;35.40;21.73;;;;;;;16.55;51.96;102688.75;5084856;28;20055;-68
2023/04/08 08:53:01;;;;;;;37.80;22.27;;;;;;;17.90;48.82;102683.22;5089747;28;20085;-68
2023/04/08 08:55:31;;;;;;;33.03;20.67;;;;;;;16.86;51.51;102683.28;5087646;28;20088;-69
2023/04/08 08:57:56;;;;;;;30.53;19.30;;;;;;;17.01;51.50;102688.47;5087458;28;20020;-68
2023/04/08 09:00:35;;;;;;;31.93;19.30;;;;;;;17.17;50.97;102683.94;5087869;28;20016;-69
2023/04/08 09:03:30;;;;;;;30.93;19.37;;;;;;;17.07;51.69;102683.13;5087919;28;20029;-68
2023/04/08 09:06:00;;;;;;;30.97;20.33;;;;;;;16.87;51.45;102682.38;5066222;28;20048;-69
2023/04/08 09:08:34;;;;;;;32.53;21.03;;;;;;;17.31;51.56;102686.47;5088816;28;20089;-69
2023/04/08 09:11:17;;;;;;;30.87;18.83;;;;;;;15.57;53.39;102693.44;5087795;28;20027;-68
2023/04/08 09:13:44;;;;;;;29.33;18.95;;;;;;;16.48;51.80;102690.53;5086999;28;20024;-68
2023/04/08 09:16:16;;;;;;;28.70;19.00;;;;;;;17.40;49.21;102691.66;5088828;28;20055;-69
2023/04/08 09:18:43;;;;;;;27.45;18.20;;;;;;;17.07;49.58;102688.41;5088567;28;20063;-69
2023/04/08 09:21:10;;;;;;;29.30;19.50;;;;;;;19.10;45.98;102689.56;5089810;28;20383;-69
2023/04/08 09:23:46;;;;;;;27.03;18.90;;;;;;;20.87;42.56;102680.78;5091837;28;20024;-68
2023/04/08 09:26:26;;;;;;;23.53;16.73;;;;;;;20.88;40.13;102690.50;5090665;28;20143;-69
2023/04/08 09:29:02;;;;;;;22.10;16.65;;;;;;;20.75;39.65;102682.81;5091831;28;20032;-69
2023/04/08 09:31:30;;;;;;;24.15;17.05;;;;;;;20.93;39.64;102691.28;5092698;28;20390;-69
2023/04/08 09:34:14;;;;;;;25.45;18.20;;;;;;;21.60;37.85;102688.69;5090932;28;20126;-68
2023/04/08 09:36:39;;;;;;;28.67;19.73;;;;;;;19.76;40.95;102703.44;5091677;28;20055;-69
2023/04/08 09:39:05;;;;;;;30.35;20.75;;;;;;;20.79;39.39;102684.50;5092397;28;20095;-68
2023/04/08 09:41:34;;;;;;;32.30;21.65;;;;;;;22.50;37.22;102687.00;5090870;28;20016;-68
2023/04/08 09:44:06;;;;;;;29.13;19.35;;;;;;;24.08;33.72;102676.28;5091466;28;20395;-68
2023/04/08 09:46:37;;;;;;;22.75;16.55;;;;;;;24.39;32.96;102680.47;5092917;28;20051;-69
2023/04/08 09:49:16;;;;;;;23.73;17.15;;;;;;;24.95;33.12;102678.22;5084364;28;20041;-69
2023/04/08 09:51:56;;;;;;;18.05;14.20;;;;;;;25.11;31.69;102684.69;5054489;28;20063;-69
2023/04/08 09:54:29;;;;;;;20.42;14.98;;;;;;;23.66;32.67;102691.16;5071262;28;20392;-69
2023/04/08 09:57:00;;;;;;;23.33;15.18;;;;;;;23.62;33.67;102699.34;5054491;28;20032;-69
2023/04/08 09:59:32;;;;;;;21.80;13.68;;;;;;;24.30;33.05;102688.84;5053654;28;20040;-69
2023/04/08 10:02:02;;;;;;;16.90;13.23;;;;;;;23.11;33.15;102688.59;5053536;28;20036;-69
2023/04/08 10:04:28;;;;;;;16.98;13.55;;;;;;;23.46;33.07;102694.53;5071682;28;20058;-69
2023/04/08 10:07:00;;;;;;;18.90;14.30;;;;;;;23.60;33.22;102690.50;5054196;28;20020;-69
2023/04/08 10:09:26;;;;;;;24.88;14.57;;;;;;;24.66;32.09;102677.63;5071019;28;20658;-69
2023/04/08 10:11:52;;;;;;;18.30;13.98;;;;;;;24.82;32.00;102678.75;5054014;28;20472;-69
2023/04/08 10:14:17;;;;;;;19.27;15.05;;;;;;;25.15;31.55;102688.97;5071980;28;20032;-69
2023/04/08 10:16:43;;;;;;;17.10;14.15;;;;;;;25.82;31.64;102686.09;5071458;28;20032;-69
2023/04/08 10:19:40;;;;;;;18.38;14.05;;;;;;;25.16;31.81;102687.19;5071323;28;20365;-70
2023/04/08 10:22:31;;;;;;;17.88;13.63;;;;;;;25.82;31.27;102681.59;5052757;28;20064;-70
2023/04/08 10:25:15;;;;;;;16.35;13.63;;;;;;;25.29;30.60;102682.16;5033515;28;20543;-69
2023/04/08 10:27:42;;;;;;;18.98;14.23;;;;;;;26.32;29.91;102673.97;5053708;28;20029;-69
2023/04/08 10:30:26;;;;;;;16.92;13.18;;;;;;;26.00;29.78;102689.75;5052489;28;20111;-69
2023/04/08 10:33:00;;;;;;;18.17;12.73;;;;;;;24.62;30.87;102676.00;5053526;28;20028;-69
2023/04/08 10:35:30;;;;;;;17.58;11.25;;;;;;;26.11;28.72;102671.38;5071344;28;20043;-70
2023/04/08 10:37:57;;;;;;;15.15;11.25;;;;;;;25.97;27.34;102681.84;5070664;28;20062;-69
2023/04/08 10:40:23;;;;;;;15.00;11.38;;;;;;;24.35;28.78;102678.84;5052956;28;20032;-69
2023/04/08 10:42:55;;;;;;;13.57;10.90;;;;;;;25.37;27.95;102680.03;5053575;28;20753;-69
2023/04/08 10:45:21;;;;;;;17.95;11.02;;;;;;;24.28;27.91;102677.34;5070445;28;20020;-69
2023/04/08 10:47:46;;;;;;;13.75;10.63;;;;;;;24.99;28.16;102680.72;5053548;28;20518;-69
2023/04/08 10:50:13;;;;;;;14.02;11.02;;;;;;;25.64;25.88;102674.41;5084350;28;20123;-69
2023/04/08 10:52:52;;;;;;;16.15;10.02;;;;;;;25.43;26.29;102674.44;5091745;28;20028;-69
2023/04/08 10:55:22;;;;;;;13.93;10.73;;;;;;;26.29;25.99;102668.78;5072992;28;20016;-69
2023/04/08 10:57:50;;;;;;;14.90;10.05;;;;;;;25.99;25.76;102666.56;5090666;28;20075;-69
2023/04/08 11:00:51;;;;;;;14.10;10.27;;;;;;;26.11;25.46;102670.53;5090818;28;20608;-69
2023/04/08 11:03:18;;;;;;;17.08;10.25;;;;;;;25.47;25.50;102669.81;5039469;28;20074;-69
2023/04/08 11:05:43;;;;;;;11.75;9.80;;;;;;;27.17;23.54;102672.50;5090757;28;20024;-69
2023/04/08 11:08:08;;;;;;;13.02;9.80;;;;;;;25.89;24.93;102676.84;5091190;28;20078;-69